Time;durP1;ratioP1;P1;durP2;ratioP2;P2;SDS_P1;SDS_P2;PMS_P1;PMS_P2;Temp;Humidity;BMP_temperature;BMP_pressure;BME280_temperature;BME280_humidity;BME280_pressure;Samples;Min_cycle;Max_cycle;Signal;HPM_P1;HPM_P2
2023/04/06 00:00:06;;;;;;;100.30;59.70;;;;;;;0.91;54.98;101031.66;113786;1233;23095;-82
2023/04/06 00:03:16;;;;;;;89.20;56.80;;;;;;;0.93;54.96;101028.26;113896;1233;21937;-81
2023/04/06 00:05:55;;;;;;;90.50;59.40;;;;;;;0.96;55.16;101029.66;113517;1233;21929;-81
2023/04/06 00:08:45;;;;;;;99.90;60.50;;;;;;;0.99;55.24;101026.95;113786;1233;22179;-79
2023/04/06 00:11:23;;;;;;;96.60;64.40;;;;;;;1.00;55.24;101025.27;113860;1233;21954;-80
2023/04/06 00:14:10;;;;;;;101.80;62.70;;;;;;;1.02;55.35;101025.29;113686;1233;22013;-83
2023/04/06 00:16:47;;;;;;;83.60;58.30;;;;;;;1.04;55.45;101022.04;113821;1233;21983;-83
2023/04/06 00:19:27;;;;;;;83.20;57.00;;;;;;;1.08;55.54;101021.06;113623;1233;21936;-83
2023/04/06 00:22:02;;;;;;;74.50;53.60;;;;;;;1.12;55.49;101019.56;113649;1233;23808;-82
2023/04/06 00:24:41;;;;;;;70.00;52.50;;;;;;;1.10;55.27;101017.31;113557;1233;21929;-84
2023/04/06 00:27:12;;;;;;;71.50;48.90;;;;;;;1.08;55.24;101019.53;113515;1233;22103;-83
2023/04/06 00:29:45;;;;;;;67.80;46.80;;;;;;;1.07;55.18;101018.48;113550;1233;22680;-82
2023/04/06 00:32:18;;;;;;;74.10;49.80;;;;;;;1.07;55.35;101017.28;113513;1233;21974;-81
2023/04/06 00:34:55;;;;;;;;;;;;;;;1.07;55.32;101017.27;113816;1233;22668;-80
2023/04/06 00:37:28;;;;;;;78.40;51.10;;;;;;;0.99;55.43;101016.16;113782;1233;22720;-81
2023/04/06 00:40:06;;;;;;;80.90;55.90;;;;;;;0.99;55.50;101017.88;113665;1233;21979;-80
2023/04/06 00:42:39;;;;;;;85.20;57.30;;;;;;;1.00;55.42;101015.33;113824;1233;22930;-80
2023/04/06 00:45:17;;;;;;;75.60;55.70;;;;;;;1.00;55.25;101011.71;113107;1239;21955;-82
2023/04/06 00:47:49;;;;;;;86.60;58.70;;;;;;;0.94;55.14;101010.63;112663;1243;21947;-82
2023/04/06 00:50:19;;;;;;;82.00;55.60;;;;;;;0.92;55.34;101013.34;112638;1243;22832;-81
2023/04/06 00:52:53;;;;;;;85.10;55.00;;;;;;;0.94;55.51;101008.56;112536;1243;21963;-82
2023/04/06 00:55:31;;;;;;;73.00;53.30;;;;;;;0.96;55.54;101009.10;112821;1243;23011;-81
2023/04/06 00:58:07;;;;;;;77.60;56.10;;;;;;;0.98;55.66;101009.47;112484;1243;23019;-81
2023/04/06 01:01:09;;;;;;;69.20;53.80;;;;;;;1.00;55.77;101007.94;112468;1243;22873;-83
2023/04/06 01:03:54;;;;;;;75.30;56.20;;;;;;;0.96;55.77;101009.95;112861;1237;23488;-82
2023/04/06 01:06:29;;;;;;;81.50;58.10;;;;;;;0.90;55.85;101006.98;113572;1233;21980;-81
2023/04/06 01:09:12;;;;;;;73.20;54.80;;;;;;;0.86;55.73;101004.69;113887;1233;22341;-81
2023/04/06 01:11:45;;;;;;;72.30;54.30;;;;;;;0.79;55.77;101000.84;113933;1233;22638;-81
2023/04/06 01:14:17;;;;;;;66.00;51.20;;;;;;;0.71;55.75;101000.56;113497;1233;21936;-80
2023/04/06 01:17:03;;;;;;;70.40;53.60;;;;;;;0.66;55.86;101003.06;113859;1232;21970;-81
2023/04/06 01:19:40;;;;;;;70.90;53.40;;;;;;;0.63;55.93;101001.49;112858;1239;23572;-81
2023/04/06 01:22:28;;;;;;;69.50;52.00;;;;;;;0.61;55.87;101001.80;112921;1238;21944;-80
2023/04/06 01:25:08;;;;;;;73.60;53.80;;;;;;;0.59;55.97;101002.96;113135;1239;22693;-80
2023/04/06 01:27:59;;;;;;;74.30;54.90;;;;;;;0.57;55.98;101008.08;113092;1239;22063;-82
2023/04/06 01:31:04;;;;;;;77.30;51.40;;;;;;;0.50;55.94;101004.73;113037;1238;21996;-82
2023/04/06 01:34:00;;;;;;;88.70;56.90;;;;;;;0.45;56.00;101004.33;113116;1238;23049;-81
2023/04/06 01:36:44;;;;;;;91.50;59.30;;;;;;;0.45;56.11;101004.67;113147;1238;21940;-80
2023/04/06 01:39:38;;;;;;;95.40;58.10;;;;;;;0.43;56.19;101005.67;113834;1233;21965;-80
2023/04/06 01:42:12;;;;;;;87.10;58.50;;;;;;;0.43;56.44;101005.32;113411;1233;21975;-81
2023/04/06 01:44:47;;;;;;;82.50;58.10;;;;;;;0.40;56.53;101001.34;113207;1239;23580;-81
2023/04/06 01:47:24;;;;;;;83.60;56.40;;;;;;;0.36;56.63;101002.33;113128;1239;23700;-82
2023/04/06 01:49:56;;;;;;;80.30;54.90;;;;;;;0.33;56.72;100999.70;112748;1238;21962;-81
2023/04/06 01:52:27;;;;;;;100.20;60.80;;;;;;;0.32;56.78;100998.65;113134;1239;21923;-81
2023/04/06 01:55:01;;;;;;;92.30;58.30;;;;;;;0.31;56.83;100999.16;112903;1239;21972;-79
2023/04/06 01:57:56;;;;;;;82.50;56.20;;;;;;;0.28;56.73;100995.85;113309;1239;23591;-78
2023/04/06 02:00:36;;;;;;;87.70;59.20;;;;;;;0.24;56.68;100994.42;112793;1239;23574;-81
2023/04/06 02:03:10;;;;;;;80.00;54.90;;;;;;;0.21;56.71;100991.99;113148;1238;21937;-82
2023/04/06 02:05:47;;;;;;;76.40;55.10;;;;;;;0.17;56.74;100991.25;112538;1243;22545;-81
2023/04/06 02:08:27;;;;;;;74.20;51.50;;;;;;;0.12;56.94;100988.96;112594;1243;21980;-79
2023/04/06 02:10:57;;;;;;;69.00;49.80;;;;;;;0.14;57.10;100991.20;112862;1241;21962;-78
2023/04/06 02:13:41;;;;;;;65.30;48.20;;;;;;;0.17;57.31;100989.36;112446;1241;21907;-80
2023/04/06 02:16:17;;;;;;;75.50;53.30;;;;;;;0.19;57.40;100988.88;113024;1241;21967;-79
2023/04/06 02:19:00;;;;;;;90.00;67.90;;;;;;;0.18;57.25;100987.67;113048;1241;21890;-80
2023/04/06 02:21:30;;;;;;;89.60;71.00;;;;;;;0.17;57.37;100988.18;112707;1241;21955;-80
2023/04/06 02:24:06;;;;;;;88.30;63.30;;;;;;;0.16;57.40;100989.69;113225;1238;24722;-80
2023/04/06 02:26:36;;;;;;;83.00;60.60;;;;;;;0.14;57.36;100992.74;113394;1238;22006;-80
2023/04/06 02:29:07;;;;;;;91.90;60.50;;;;;;;0.11;57.45;100994.25;113279;1233;21966;-80
2023/04/06 02:31:42;;;;;;;82.80;56.80;;;;;;;0.09;57.31;100988.05;113761;1233;22008;-79
2023/04/06 02:34:17;;;;;;;73.00;50.20;;;;;;;0.08;57.39;100991.80;113753;1233;21949;-79
2023/04/06 02:36:53;;;;;;;67.30;46.70;;;;;;;0.05;57.33;100995.67;113516;1233;23599;-79
2023/04/06 02:39:23;;;;;;;69.60;50.90;;;;;;;0.01;57.31;100999.91;113237;1239;23680;-79
2023/04/06 02:41:57;;;;;;;70.00;51.50;;;;;;;-0.04;57.24;100998.30;112966;1239;21964;-79
2023/04/06 02:44:29;;;;;;;70.10;53.90;;;;;;;-0.08;57.43;100998.73;112739;1241;22023;-78
2023/04/06 02:46:59;;;;;;;70.00;51.60;;;;;;;-0.10;57.58;100996.83;112783;1240;22002;-79
2023/04/06 02:49:33;;;;;;;66.40;49.20;;;;;;;-0.10;57.55;100998.02;111961;1248;21978;-80
2023/04/06 02:52:06;;;;;;;63.40;49.90;;;;;;;-0.10;57.53;100998.54;112230;1248;22854;-80
2023/04/06 02:54:40;;;;;;;73.90;54.70;;;;;;;-0.11;57.58;100999.90;112248;1248;21921;-81
2023/04/06 02:57:12;;;;;;;82.00;64.60;;;;;;;-0.12;57.90;101001.25;111709;1246;21960;-77
2023/04/06 02:59:45;;;;;;;83.40;66.80;;;;;;;-0.13;57.90;101004.47;111790;1246;23025;-79
2023/04/06 03:02:20;;;;;;;81.30;67.40;;;;;;;-0.15;58.06;101004.95;111712;1246;21909;-79
2023/04/06 03:04:55;;;;;;;79.20;64.70;;;;;;;-0.18;58.07;101000.80;111593;1252;21965;-78
2023/04/06 03:07:29;;;;;;;82.60;66.90;;;;;;;-0.21;58.13;100997.67;111944;1246;23568;-81
2023/04/06 03:10:01;;;;;;;78.70;64.30;;;;;;;-0.25;58.23;100998.47;112145;1245;23021;-79
2023/04/06 03:12:33;;;;;;;77.20;60.70;;;;;;;-0.27;58.26;100999.63;112358;1246;22273;-80
2023/04/06 03:15:23;;;;;;;82.60;64.20;;;;;;;-0.32;58.41;101002.77;112170;1246;22708;-80
2023/04/06 03:18:01;;;;;;;72.20;56.10;;;;;;;-0.35;58.53;100999.48;112370;1246;21978;-80
2023/04/06 03:20:46;;;;;;;66.70;51.20;;;;;;;-0.37;58.49;100999.45;112593;1240;22193;-80
2023/04/06 03:23:24;;;;;;;67.90;51.60;;;;;;;-0.36;58.71;101001.52;113280;1233;23555;-78
2023/04/06 03:26:21;;;;;;;60.40;45.90;;;;;;;-0.34;59.02;101000.19;113105;1238;21955;-79
2023/04/06 03:29:00;;;;;;;70.00;51.90;;;;;;;-0.31;59.04;100999.55;113126;1238;22016;-79
2023/04/06 03:31:33;;;;;;;69.80;57.90;;;;;;;-0.30;58.95;101000.08;113187;1238;23723;-78
2023/04/06 03:34:28;;;;;;;78.30;61.20;;;;;;;-0.33;58.93;101002.77;113558;1238;21971;-81
2023/04/06 03:36:58;;;;;;;78.90;62.90;;;;;;;-0.35;58.90;101004.44;113100;1238;23692;-78
2023/04/06 03:39:39;;;;;;;81.70;64.30;;;;;;;-0.39;58.96;101007.61;112885;1241;22477;-79
2023/04/06 03:42:12;;;;;;;82.50;66.20;;;;;;;-0.43;59.01;101007.20;112839;1241;23007;-79
2023/04/06 03:44:51;;;;;;;84.70;66.70;;;;;;;-0.49;59.14;101006.42;112826;1241;22262;-78
2023/04/06 03:47:24;;;;;;;84.50;67.00;;;;;;;-0.55;59.17;101007.18;112304;1247;21950;-80
2023/04/06 03:49:58;;;;;;;91.60;69.00;;;;;;;-0.60;59.12;101007.25;112279;1245;22030;-78
2023/04/06 03:52:28;;;;;;;83.40;65.30;;;;;;;-0.62;59.31;101011.65;112385;1245;22435;-78
2023/04/06 03:54:59;;;;;;;76.90;63.40;;;;;;;-0.63;59.45;101013.17;112631;1245;21962;-79
2023/04/06 03:57:32;;;;;;;76.80;63.50;;;;;;;-0.64;59.64;101016.42;111985;1245;21952;-79
2023/04/06 04:00:10;;;;;;;75.90;59.40;;;;;;;-0.63;59.62;101019.85;112424;1245;22790;-80
2023/04/06 04:02:43;;;;;;;83.10;60.30;;;;;;;-0.62;59.79;101020.71;112562;1245;22056;-80
2023/04/06 04:05:13;;;;;;;81.00;60.80;;;;;;;-0.61;59.85;101021.93;112450;1239;23097;-79
2023/04/06 04:07:44;;;;;;;88.00;67.50;;;;;;;-0.61;59.89;101022.27;112168;1246;23665;-78
2023/04/06 04:10:17;;;;;;;91.10;63.80;;;;;;;-0.62;59.87;101025.52;112256;1246;23432;-79
2023/04/06 04:12:55;;;;;;;77.50;60.30;;;;;;;-0.62;60.01;101030.63;112230;1237;21986;-78
2023/04/06 04:15:25;;;;;;;104.80;73.30;;;;;;;-0.67;60.17;101029.02;112468;1242;23578;-79
2023/04/06 04:17:55;;;;;;;90.70;69.50;;;;;;;-0.69;60.32;101027.45;111744;1250;22022;-80
2023/04/06 04:20:28;;;;;;;84.60;64.40;;;;;;;-0.69;60.38;101033.91;111648;1250;21956;-81
2023/04/06 04:23:03;;;;;;;78.30;62.00;;;;;;;-0.69;60.34;101033.40;112003;1246;21976;-79
2023/04/06 04:25:37;;;;;;;77.00;61.50;;;;;;;-0.67;60.34;101036.70;112500;1239;21942;-78
2023/04/06 04:28:08;;;;;;;74.60;62.90;;;;;;;-0.66;60.45;101033.80;112633;1244;22149;-79
2023/04/06 04:30:38;;;;;;;78.90;62.00;;;;;;;-0.64;60.50;101030.95;112470;1244;21982;-79
2023/04/06 04:33:10;;;;;;;83.30;66.00;;;;;;;-0.62;60.60;101029.77;112371;1244;22941;-79
2023/04/06 04:35:40;;;;;;;103.80;68.80;;;;;;;-0.62;60.55;101030.46;112539;1230;21943;-80
2023/04/06 04:38:11;;;;;;;90.30;67.00;;;;;;;-0.63;60.54;101027.36;113118;1239;22429;-79
2023/04/06 04:40:46;;;;;;;97.00;69.50;;;;;;;-0.65;60.56;101027.52;113156;1239;24249;-80
2023/04/06 04:43:18;;;;;;;92.40;71.00;;;;;;;-0.67;60.65;101033.10;113340;1239;21945;-81
2023/04/06 04:45:53;;;;;;;91.60;68.20;;;;;;;-0.68;60.70;101033.92;113211;1233;21964;-79
2023/04/06 04:48:34;;;;;;;88.10;66.30;;;;;;;-0.70;60.72;101039.54;112825;1239;23597;-78
2023/04/06 04:51:10;;;;;;;93.90;65.20;;;;;;;-0.70;60.87;101045.18;113105;1240;21950;-80
2023/04/06 04:53:54;;;;;;;88.10;64.00;;;;;;;-0.68;60.95;101043.00;113159;1240;21954;-80
2023/04/06 04:56:30;;;;;;;96.20;66.10;;;;;;;-0.67;60.85;101048.99;113375;1240;21974;-81
2023/04/06 04:59:14;;;;;;;94.10;66.70;;;;;;;-0.66;60.87;101050.57;112548;1244;23024;-79
2023/04/06 05:01:51;;;;;;;97.90;67.50;;;;;;;-0.67;60.94;101048.83;112397;1246;22401;-78
2023/04/06 05:04:29;;;;;;;103.50;67.00;;;;;;;-0.68;60.98;101046.42;112404;1246;21951;-79
2023/04/06 05:07:09;;;;;;;105.70;66.40;;;;;;;-0.65;61.20;101044.59;112784;1239;21961;-80
2023/04/06 05:09:40;;;;;;;89.70;62.00;;;;;;;-0.65;61.22;101049.72;112060;1245;23577;-79
2023/04/06 05:12:10;;;;;;;95.40;63.50;;;;;;;-0.63;61.27;101050.30;112239;1245;22045;-80
2023/04/06 05:14:47;;;;;;;106.40;60.50;;;;;;;-0.59;61.36;101048.13;112536;1245;22243;-79
2023/04/06 05:17:21;;;;;;;101.90;61.90;;;;;;;-0.54;61.33;101048.05;112294;1239;23603;-79
2023/04/06 05:19:51;;;;;;;;;;;;;;;-0.50;61.36;101049.99;113109;1239;23027;-79
2023/04/06 05:22:25;;;;;;;93.00;57.80;;;;;;;-0.53;61.53;101053.55;113165;1238;23578;-79
2023/04/06 05:25:05;;;;;;;93.00;58.70;;;;;;;-0.50;61.67;101053.42;112952;1239;22959;-78
2023/04/06 05:27:35;;;;;;;82.10;56.90;;;;;;;-0.43;61.65;101051.34;113133;1233;23012;-78
2023/04/06 05:30:09;;;;;;;79.90;60.20;;;;;;;-0.35;61.64;101055.25;113590;1231;21933;-79
2023/04/06 05:32:44;;;;;;;81.90;61.40;;;;;;;-0.28;61.78;101059.98;113556;1233;21966;-79
2023/04/06 05:35:25;;;;;;;94.70;65.60;;;;;;;-0.19;61.85;101059.11;113481;1233;21999;-79
2023/04/06 05:38:00;;;;;;;91.20;66.30;;;;;;;-0.07;62.05;101057.26;113786;1233;22688;-80
2023/04/06 05:40:36;;;;;;;83.50;61.50;;;;;;;0.04;62.09;101055.39;113856;1233;21928;-79
2023/04/06 05:43:09;;;;;;;90.30;64.70;;;;;;;0.17;62.03;101053.21;113310;1237;22301;-79
2023/04/06 05:45:44;;;;;;;90.60;62.20;;;;;;;0.32;62.32;101052.92;112392;1242;21958;-81
2023/04/06 05:48:18;;;;;;;85.90;58.20;;;;;;;0.48;62.31;101050.09;112820;1242;21946;-80
2023/04/06 05:50:54;;;;;;;67.50;52.40;;;;;;;0.66;62.08;101050.33;112486;1242;22431;-81
2023/04/06 05:53:29;;;;;;;80.40;55.70;;;;;;;0.84;61.94;101052.46;112131;1246;21958;-78
2023/04/06 05:56:05;;;;;;;79.10;57.20;;;;;;;1.00;61.56;101050.27;111881;1246;22009;-76
2023/04/06 05:58:35;;;;;;;65.80;51.30;;;;;;;1.15;61.31;101050.46;112007;1246;21947;-78
2023/04/06 06:01:09;;;;;;;84.30;57.30;;;;;;;1.31;61.03;101050.48;112274;1243;23693;-80
2023/04/06 06:03:50;;;;;;;72.40;55.90;;;;;;;1.47;60.84;101048.24;112633;1237;21961;-81
2023/04/06 06:06:25;;;;;;;72.60;56.20;;;;;;;1.64;60.67;101050.66;113569;1238;22791;-80
2023/04/06 06:09:24;;;;;;;83.60;59.60;;;;;;;1.87;60.56;101051.73;113319;1238;23799;-78
2023/04/06 06:12:01;;;;;;;90.90;63.70;;;;;;;2.08;60.37;101049.52;113440;1237;21918;-80
2023/04/06 06:14:32;;;;;;;82.20;59.90;;;;;;;2.28;59.95;101050.70;113088;1238;21958;-80
2023/04/06 06:17:02;;;;;;;87.80;62.60;;;;;;;2.50;59.61;101053.95;113026;1238;21956;-80
2023/04/06 06:19:37;;;;;;;88.10;64.50;;;;;;;2.75;59.29;101049.44;113550;1233;23686;-81
2023/04/06 06:22:10;;;;;;;81.40;60.40;;;;;;;2.97;58.80;101047.34;113801;1233;21933;-83
2023/04/06 06:24:43;;;;;;;87.20;62.70;;;;;;;3.24;58.64;101052.27;113572;1233;21899;-81
2023/04/06 06:27:13;;;;;;;82.70;62.70;;;;;;;3.55;58.27;101054.41;113589;1233;23197;-81
2023/04/06 06:29:45;;;;;;;82.80;61.50;;;;;;;3.80;57.51;101055.65;113701;1233;22058;-76
2023/04/06 06:32:16;;;;;;;85.40;61.00;;;;;;;4.01;56.88;101055.85;113683;1233;21965;-76
2023/04/06 06:34:48;;;;;;;89.10;62.50;;;;;;;4.21;56.26;101053.95;113426;1233;24080;-74
2023/04/06 06:37:21;;;;;;;95.20;63.30;;;;;;;4.43;55.80;101055.14;113644;1233;22953;-74
2023/04/06 06:39:51;;;;;;;90.60;62.20;;;;;;;4.71;55.54;101048.88;113377;1233;21938;-75
2023/04/06 06:42:23;;;;;;;84.60;60.10;;;;;;;5.11;55.39;101050.83;113426;1233;21985;-79
2023/04/06 06:45:11;;;;;;;81.90;59.40;;;;;;;5.47;54.56;101049.44;113341;1233;21960;-74
2023/04/06 06:47:41;;;;;;;48.20;37.90;;;;;;;5.86;54.26;101047.30;113420;1233;21931;-75
2023/04/06 06:50:13;;;;;;;54.30;37.50;;;;;;;6.22;53.48;101047.73;113498;1233;22023;-76
2023/04/06 06:52:43;;;;;;;47.50;34.80;;;;;;;6.60;52.65;101045.13;113483;1233;21957;-74
2023/04/06 06:55:13;;;;;;;33.70;27.50;;;;;;;6.91;51.62;101043.05;113416;1233;22962;-75
2023/04/06 06:57:46;;;;;;;19.80;14.30;;;;;;;7.38;51.36;101044.02;113652;1233;23563;-75
2023/04/06 07:00:20;;;;;;;21.40;15.90;;;;;;;7.85;49.64;101039.89;113513;1233;22812;-77
2023/04/06 07:02:54;;;;;;;17.10;13.60;;;;;;;8.17;47.99;101039.38;113512;1233;22319;-79
2023/04/06 07:05:25;;;;;;;19.00;14.30;;;;;;;8.48;46.74;101036.59;113645;1233;21950;-82
2023/04/06 07:08:01;;;;;;;16.30;12.70;;;;;;;8.77;45.33;101041.27;113734;1233;21936;-80
2023/04/06 07:10:32;;;;;;;12.00;9.60;;;;;;;9.00;43.92;101039.62;113868;1233;21952;-79
2023/04/06 07:13:03;;;;;;;17.90;12.60;;;;;;;9.09;42.60;101042.90;112774;1241;21968;-79
2023/04/06 07:15:32;;;;;;;9.80;6.00;;;;;;;9.26;42.22;101042.72;112092;1245;21966;-81
2023/04/06 07:18:03;;;;;;;11.50;6.10;;;;;;;9.46;41.44;101039.84;112415;1245;22031;-79
2023/04/06 07:20:38;;;;;;;7.40;5.70;;;;;;;9.62;40.48;101040.86;112541;1245;23685;-79
2023/04/06 07:23:10;;;;;;;11.10;7.00;;;;;;;9.75;39.57;101039.53;112468;1244;21952;-80
2023/04/06 07:25:43;;;;;;;11.20;7.80;;;;;;;9.74;38.62;101036.42;112290;1245;22006;-79
2023/04/06 07:28:13;;;;;;;;;;;;;;;9.78;38.56;101037.56;112357;1245;21939;-81
2023/04/06 07:30:43;;;;;;;13.10;8.50;;;;;;;9.71;38.35;101042.40;112406;1239;21944;-81
2023/04/06 07:33:13;;;;;;;12.50;8.90;;;;;;;9.69;37.86;101036.90;112381;1240;21965;-80
2023/04/06 07:35:45;;;;;;;12.20;8.40;;;;;;;9.73;38.02;101039.76;113135;1241;21965;-78
2023/04/06 07:38:16;;;;;;;13.70;7.00;;;;;;;9.93;37.87;101037.88;112809;1240;21939;-78
2023/04/06 07:40:47;;;;;;;87.80;15.80;;;;;;;10.04;36.91;101037.63;112854;1240;22908;-82
2023/04/06 07:43:24;;;;;;;21.40;8.20;;;;;;;10.12;36.76;101042.11;112991;1240;23609;-84
2023/04/06 07:46:02;;;;;;;12.70;6.70;;;;;;;9.92;35.81;101043.65;112276;1246;23700;-86
2023/04/06 07:48:37;;;;;;;8.70;6.00;;;;;;;9.58;35.42;101049.30;112272;1246;21935;-80
2023/04/06 07:51:13;;;;;;;13.30;6.60;;;;;;;9.27;35.83;101046.33;112374;1240;23674;-83
2023/04/06 07:53:55;;;;;;;13.90;6.40;;;;;;;9.14;36.20;101044.17;112677;1241;21976;-83
2023/04/06 07:56:25;;;;;;;9.00;7.20;;;;;;;9.27;36.84;101040.95;112978;1240;22595;-79
2023/04/06 07:58:58;;;;;;;8.70;6.60;;;;;;;9.37;36.61;101040.90;112549;1240;21980;-77
2023/04/06 08:01:31;;;;;;;9.10;6.90;;;;;;;9.31;36.43;101041.73;112301;1244;22429;-79
2023/04/06 08:04:02;;;;;;;8.60;6.50;;;;;;;9.34;36.44;101042.20;112555;1239;21965;-78
2023/04/06 08:06:38;;;;;;;9.80;5.70;;;;;;;9.31;36.34;101048.84;112454;1244;21943;-79
2023/04/06 08:09:13;;;;;;;11.40;7.60;;;;;;;9.08;35.22;101050.55;112381;1244;24434;-78
2023/04/06 08:11:46;;;;;;;7.80;6.70;;;;;;;9.02;35.39;101046.67;112404;1244;21932;-78
2023/04/06 08:14:16;;;;;;;10.30;6.60;;;;;;;9.00;35.32;101048.80;112346;1244;21946;-77
2023/04/06 08:16:48;;;;;;;11.50;5.00;;;;;;;9.04;35.52;101046.65;112520;1244;23748;-77
2023/04/06 08:19:23;;;;;;;7.30;5.10;;;;;;;9.10;34.91;101052.59;112446;1240;22177;-77
2023/04/06 08:21:55;;;;;;;7.30;4.80;;;;;;;9.24;35.12;101045.37;112836;1240;21919;-76
2023/04/06 08:24:25;;;;;;;7.60;5.30;;;;;;;9.30;34.45;101043.33;113032;1241;21945;-80
2023/04/06 08:27:08;;;;;;;6.20;4.20;;;;;;;9.33;34.31;101043.77;113263;1240;22940;-79
2023/04/06 08:29:39;;;;;;;9.90;5.80;;;;;;;9.35;34.14;101039.90;113009;1240;23574;-77
2023/04/06 08:32:10;;;;;;;8.10;5.90;;;;;;;9.43;34.23;101041.46;113369;1234;22468;-84
2023/04/06 08:34:45;;;;;;;6.30;4.50;;;;;;;9.43;34.04;101039.72;112859;1241;22067;-86
2023/04/06 08:37:25;;;;;;;7.10;4.70;;;;;;;9.30;33.80;101036.90;112712;1241;23714;-84
2023/04/06 08:40:08;;;;;;;19.10;6.90;;;;;;;9.33;34.38;101039.62;112559;1241;23593;-84
2023/04/06 08:43:11;;;;;;;9.30;5.70;;;;;;;9.39;33.93;101041.73;112728;1241;23590;-85
2023/04/06 08:46:05;;;;;;;9.80;5.30;;;;;;;9.39;33.96;101039.66;112638;1241;23691;-81
2023/04/06 08:49:02;;;;;;;5.60;4.90;;;;;;;9.58;33.97;101035.91;112834;1241;22039;-81
2023/04/06 08:51:40;;;;;;;8.70;5.00;;;;;;;9.80;33.67;101029.70;112400;1241;22047;-87
2023/04/06 08:54:18;;;;;;;8.90;6.10;;;;;;;10.03;34.25;101030.17;113608;1234;21941;-88
2023/04/06 08:56:56;;;;;;;8.80;5.50;;;;;;;10.39;34.02;101032.25;113283;1234;21965;-81
2023/04/06 08:59:31;;;;;;;9.60;6.10;;;;;;;10.61;33.73;101025.77;113526;1234;21945;-82
2023/04/06 09:02:06;;;;;;;10.30;5.50;;;;;;;10.68;33.16;101029.21;113502;1234;21935;-84
2023/04/06 09:04:53;;;;;;;8.10;6.20;;;;;;;10.36;32.71;101030.58;113653;1234;21952;-83
2023/04/06 09:07:33;;;;;;;9.90;6.10;;;;;;;10.21;33.72;101029.40;113793;1234;22779;-83
2023/04/06 09:10:26;;;;;;;10.00;5.70;;;;;;;10.56;34.26;101026.05;113426;1234;21974;-84
2023/04/06 09:13:16;;;;;;;7.80;6.10;;;;;;;10.77;33.58;101021.32;113568;1234;21946;-85
2023/04/06 09:16:12;;;;;;;10.10;6.70;;;;;;;10.60;33.09;101026.63;113538;1234;21944;-82
2023/04/06 09:19:16;;;;;;;13.90;6.60;;;;;;;10.07;32.92;101028.52;113451;1234;23619;-82
2023/04/06 09:22:10;;;;;;;8.50;6.20;;;;;;;9.55;33.18;101025.58;113543;1234;22444;-83
2023/04/06 09:24:54;;;;;;;6.70;5.70;;;;;;;9.41;34.19;101021.03;112769;1240;21969;-81
2023/04/06 09:27:33;;;;;;;10.40;6.10;;;;;;;9.30;34.02;101019.02;113103;1240;21998;-80
2023/04/06 09:30:09;;;;;;;6.40;5.00;;;;;;;8.98;33.71;101019.67;112509;1240;21966;-81
2023/04/06 09:33:10;;;;;;;12.10;6.20;;;;;;;8.74;34.24;101020.86;112907;1240;21956;-83
2023/04/06 09:35:49;;;;;;;8.00;6.60;;;;;;;8.58;34.43;101019.59;112271;1245;22561;-79
2023/04/06 09:38:22;;;;;;;8.70;5.80;;;;;;;8.30;34.37;101017.30;112197;1245;21972;-84
2023/04/06 09:40:56;;;;;;;7.90;5.70;;;;;;;7.95;34.58;101014.59;112149;1245;23704;-84
2023/04/06 09:43:31;;;;;;;10.10;8.10;;;;;;;7.75;35.09;101012.83;112489;1241;22077;-81
2023/04/06 09:46:05;;;;;;;12.10;6.60;;;;;;;7.63;35.34;101011.45;112708;1241;21964;-80
2023/04/06 09:48:36;;;;;;;8.60;6.10;;;;;;;7.42;35.33;101017.83;112801;1241;22717;-80
2023/04/06 09:51:09;;;;;;;9.10;6.50;;;;;;;7.16;35.56;101020.25;112814;1240;23450;-86
2023/04/06 09:54:02;;;;;;;;;;;;;;;;;;;;;
2023/04/06 09:57:19;;;;;;;10.00;6.90;;;;;;;7.60;37.37;101011.84;113038;1241;23772;-83
2023/04/06 10:00:14;;;;;;;9.40;7.80;;;;;;;8.18;37.34;101008.82;113048;1241;22023;-84
2023/04/06 10:03:11;;;;;;;10.70;8.20;;;;;;;8.57;36.62;101006.06;112782;1243;21955;-84
2023/04/06 10:06:01;;;;;;;11.10;7.40;;;;;;;8.67;35.54;101006.25;112102;1249;22005;-83
2023/04/06 10:08:40;;;;;;;9.30;6.90;;;;;;;8.71;35.54;100998.52;111970;1248;21950;-86
2023/04/06 10:11:16;;;;;;;9.60;6.30;;;;;;;8.82;35.56;100995.86;112136;1249;21939;-86
2023/04/06 10:14:00;;;;;;;14.30;8.10;;;;;;;8.97;35.14;100989.66;112546;1243;23687;-84
2023/04/06 10:16:36;;;;;;;12.10;8.20;;;;;;;8.91;34.95;100985.80;112816;1243;21944;-86
2023/04/06 10:19:16;;;;;;;17.40;8.10;;;;;;;8.93;34.91;100982.47;112756;1242;23040;-83
2023/04/06 10:21:54;;;;;;;19.80;9.20;;;;;;;8.71;34.32;100981.52;112630;1245;22233;-84
2023/04/06 10:24:30;;;;;;;11.60;8.50;;;;;;;8.43;34.61;100983.96;112474;1245;22040;-82
2023/04/06 10:27:06;;;;;;;10.40;8.50;;;;;;;8.32;35.17;100979.45;112586;1245;21943;-84
2023/04/06 10:29:56;;;;;;;8.10;6.80;;;;;;;8.45;35.67;100973.52;112743;1240;22013;-82
2023/04/06 10:32:38;;;;;;;20.90;7.80;;;;;;;8.98;36.39;100966.56;112967;1240;21953;-79
2023/04/06 10:35:16;;;;;;;11.10;8.00;;;;;;;9.37;35.70;100968.13;113158;1240;21968;-80
2023/04/06 10:38:02;;;;;;;12.00;8.30;;;;;;;9.64;35.21;100966.98;113247;1240;22244;-81
2023/04/06 10:40:39;;;;;;;8.50;7.30;;;;;;;9.82;34.70;100968.64;112690;1238;23049;-82
2023/04/06 10:43:20;;;;;;;9.60;8.30;;;;;;;9.83;34.27;100965.65;112814;1243;23031;-82
2023/04/06 10:46:01;;;;;;;10.60;7.80;;;;;;;9.83;33.84;100954.88;112848;1243;22448;-77
2023/04/06 10:48:57;;;;;;;10.30;8.80;;;;;;;9.70;33.64;100957.08;112475;1243;21959;-75
2023/04/06 10:51:28;;;;;;;11.10;10.00;;;;;;;9.45;33.46;100956.80;111968;1249;21942;-78
2023/04/06 10:54:00;;;;;;;10.90;8.90;;;;;;;9.28;33.82;100953.39;112021;1241;21965;-73
2023/04/06 10:56:31;;;;;;;12.00;9.20;;;;;;;9.26;34.07;100945.11;112067;1247;22554;-77
2023/04/06 10:59:01;;;;;;;9.80;8.30;;;;;;;9.17;33.85;100949.64;112604;1241;23021;-77
2023/04/06 11:01:30;;;;;;;14.00;9.50;;;;;;;9.09;34.15;100948.60;112867;1241;23064;-79
2023/04/06 11:04:00;;;;;;;10.50;9.10;;;;;;;8.98;34.12;100945.02;112482;1241;22084;-79
2023/04/06 11:06:32;;;;;;;10.30;9.00;;;;;;;8.87;34.23;100941.79;112808;1241;24388;-77
2023/04/06 11:09:01;;;;;;;12.10;9.20;;;;;;;8.68;34.07;100939.07;112887;1233;21939;-78
2023/04/06 11:11:30;;;;;;;13.60;9.30;;;;;;;8.43;34.04;100932.77;113279;1233;23601;-77
2023/04/06 11:14:00;;;;;;;12.40;11.10;;;;;;;8.22;34.42;100931.27;113559;1233;22095;-77
2023/04/06 11:16:32;;;;;;;14.90;10.60;;;;;;;8.11;34.98;100933.03;113334;1233;216264;-78
2023/04/06 11:19:05;;;;;;;;;;;;;;;8.01;35.36;100936.85;113437;1235;21946;-77
2023/04/06 11:21:38;;;;;;;17.10;9.60;;;;;;;7.82;35.49;100937.69;113534;1234;22149;-77
2023/04/06 11:24:22;;;;;;;15.20;9.10;;;;;;;7.71;35.66;100933.36;113686;1234;21936;-78
2023/04/06 11:26:58;;;;;;;12.40;9.10;;;;;;;7.62;35.78;100929.54;113259;1234;21945;-78
2023/04/06 11:29:31;;;;;;;10.50;8.80;;;;;;;7.49;35.85;100931.64;113467;1235;21945;-78
2023/04/06 11:32:05;;;;;;;10.00;8.40;;;;;;;7.36;36.21;100927.02;113257;1234;21942;-76
2023/04/06 11:34:40;;;;;;;13.70;9.30;;;;;;;7.34;36.68;100924.61;113246;1235;21939;-77
2023/04/06 11:37:12;;;;;;;14.30;9.50;;;;;;;7.35;36.70;100922.69;113636;1235;21976;-78
2023/04/06 11:39:54;;;;;;;12.40;8.40;;;;;;;7.24;36.47;100919.03;113300;1235;21935;-77
2023/04/06 11:42:29;;;;;;;9.70;7.90;;;;;;;7.11;36.57;100918.20;113540;1235;21952;-77
2023/04/06 11:45:00;;;;;;;9.00;7.60;;;;;;;7.03;36.78;100915.02;113646;1233;23594;-78
2023/04/06 11:47:33;;;;;;;12.40;9.20;;;;;;;7.01;37.03;100907.25;113453;1234;22011;-78
2023/04/06 11:50:14;;;;;;;13.90;8.70;;;;;;;7.01;37.11;100907.60;113356;1235;23009;-78
2023/04/06 11:52:44;;;;;;;9.90;8.20;;;;;;;6.98;37.35;100894.16;113341;1234;23011;-78
2023/04/06 11:55:18;;;;;;;12.70;8.20;;;;;;;7.04;37.68;100897.88;113513;1235;24316;-78
2023/04/06 11:57:49;;;;;;;11.80;8.10;;;;;;;7.07;37.67;100893.86;113321;1234;23671;-78